createdAt,value
2023-02-11T00:01:28.834Z,36.58
2023-02-11T00:03:59.173Z,33.92
2023-02-11T00:06:29.081Z,33.08
2023-02-11T00:08:58.572Z,31.88
2023-02-11T00:11:30.280Z,40.90
2023-02-11T00:13:58.445Z,37.80
2023-02-11T00:16:26.877Z,34.88
2023-02-11T00:18:54.910Z,33.60
2023-02-11T00:21:24.552Z,38.33
2023-02-11T00:23:52.845Z,51.83
2023-02-11T00:26:23.917Z,42.55
2023-02-11T00:28:53.364Z,37.42
2023-02-11T00:31:22.678Z,35.70
2023-02-11T00:33:51.135Z,37.22
2023-02-11T00:36:20.952Z,32.85
2023-02-11T00:38:49.943Z,33.50
2023-02-11T00:41:18.526Z,32.72
2023-02-11T00:43:47.687Z,30.27
2023-02-11T00:46:16.111Z,39.35
2023-02-11T00:48:44.702Z,32.58
2023-02-11T00:51:13.034Z,29.75
2023-02-11T00:53:41.020Z,33.03
2023-02-11T00:56:08.998Z,30.95
2023-02-11T00:58:36.833Z,32.80
2023-02-11T01:01:06.448Z,34.47
2023-02-11T01:03:34.684Z,32.28
2023-02-11T01:06:02.601Z,31.63
2023-02-11T01:08:30.447Z,30.95
2023-02-11T01:10:59.544Z,30.73
2023-02-11T01:13:27.823Z,33.38
2023-02-11T01:15:56.207Z,35.05
2023-02-11T01:18:25.886Z,34.58
2023-02-11T01:20:54.373Z,31.92
2023-02-11T01:23:22.563Z,32.95
2023-02-11T01:25:50.994Z,36.70
2023-02-11T01:28:20.289Z,33.78
2023-02-11T01:30:48.573Z,35.83
2023-02-11T01:33:16.620Z,37.63
2023-02-11T01:35:46.094Z,39.28
2023-02-11T01:38:18.402Z,32.90
2023-02-11T01:40:50.278Z,34.03
2023-02-11T01:43:18.339Z,32.08
2023-02-11T01:46:13.867Z,31.00
2023-02-11T01:48:45.259Z,34.05
2023-02-11T01:51:17.969Z,31.50
2023-02-11T01:54:05.337Z,37.70
2023-02-11T01:56:53.656Z,32.35
2023-02-11T01:59:25.458Z,35.33
2023-02-11T02:01:59.868Z,42.00
2023-02-11T02:04:33.562Z,39.40
2023-02-11T02:07:07.443Z,36.03
2023-02-11T02:09:40.672Z,40.80
2023-02-11T02:12:08.810Z,35.75
2023-02-11T02:14:39.999Z,35.35
2023-02-11T02:17:08.543Z,33.17
2023-02-11T02:20:23.448Z,32.85
2023-02-11T02:23:18.408Z,30.33
2023-02-11T02:26:19.860Z,31.75
2023-02-11T02:29:25.189Z,27.98
2023-02-11T02:32:24.307Z,25.40
2023-02-11T02:34:59.321Z,29.92
2023-02-11T02:37:34.319Z,31.65
2023-02-11T02:40:09.028Z,26.75
2023-02-11T02:42:37.703Z,27.20
2023-02-11T02:45:07.770Z,29.88
2023-02-11T02:47:36.970Z,29.67
2023-02-11T02:50:05.981Z,31.50
2023-02-11T02:52:40.828Z,29.00
2023-02-11T02:55:19.970Z,27.90
2023-02-11T02:58:12.908Z,31.40
2023-02-11T03:00:48.823Z,30.67
2023-02-11T03:03:35.886Z,33.20
2023-02-11T03:06:09.104Z,27.88
2023-02-11T03:08:43.336Z,25.58
2023-02-11T03:11:12.639Z,29.90
2023-02-11T03:13:41.826Z,28.13
2023-02-11T03:16:14.561Z,29.38
2023-02-11T03:18:50.570Z,35.30
2023-02-11T03:21:21.208Z,29.00
2023-02-11T03:23:53.680Z,30.67
2023-02-11T03:26:26.724Z,31.17
2023-02-11T03:31:34.537Z,29.25
2023-02-11T03:34:08.720Z,34.78
2023-02-11T03:36:45.996Z,29.58
2023-02-11T03:39:15.702Z,32.72
2023-02-11T03:41:44.861Z,30.98
2023-02-11T03:44:16.360Z,36.47
2023-02-11T03:46:49.149Z,30.85
2023-02-11T03:49:21.488Z,34.00
2023-02-11T03:51:52.761Z,31.55
2023-02-11T03:54:25.347Z,32.60
2023-02-11T03:56:55.924Z,35.20
2023-02-11T03:59:23.760Z,30.40
2023-02-11T04:01:51.551Z,34.65
2023-02-11T04:04:20.616Z,30.40
2023-02-11T04:06:48.427Z,35.22
2023-02-11T04:09:16.233Z,29.92
2023-02-11T04:11:43.964Z,35.90
2023-02-11T04:14:11.787Z,33.17
2023-02-11T04:16:39.590Z,31.33
2023-02-11T04:19:07.373Z,32.78
2023-02-11T04:21:36.531Z,30.00
2023-02-11T04:24:04.526Z,29.73
2023-02-11T04:26:32.271Z,28.67
2023-02-11T04:28:59.922Z,31.42
2023-02-11T04:31:27.739Z,26.25
2023-02-11T04:33:55.513Z,27.42
2023-02-11T04:36:23.352Z,28.48
2023-02-11T04:38:52.368Z,32.17
2023-02-11T04:41:20.117Z,28.40
2023-02-11T04:43:47.846Z,29.85
2023-02-11T04:46:15.632Z,27.00
2023-02-11T04:48:43.463Z,32.38
2023-02-11T04:51:11.234Z,25.08
2023-02-11T04:53:38.990Z,28.88
2023-02-11T04:56:08.241Z,30.40
2023-02-11T04:58:36.055Z,25.92
2023-02-11T05:01:07.998Z,24.83
2023-02-11T05:03:35.812Z,26.00
2023-02-11T05:06:03.567Z,30.48
2023-02-11T05:08:31.449Z,23.83
2023-02-11T05:10:59.298Z,24.20
2023-02-11T05:13:28.480Z,25.40
2023-02-11T05:15:56.256Z,25.63
2023-02-11T05:18:24.304Z,25.20
2023-02-11T05:20:51.990Z,26.98
2023-02-11T05:23:19.701Z,29.13
2023-02-11T05:25:47.411Z,24.90
2023-02-11T05:28:15.210Z,29.23
2023-02-11T05:30:44.349Z,26.58
2023-02-11T05:33:12.141Z,27.30
2023-02-11T05:35:39.840Z,27.45
2023-02-11T05:38:07.590Z,29.50
2023-02-11T05:40:35.301Z,29.95
2023-02-11T05:43:03.082Z,30.15
2023-02-11T05:45:31.789Z,27.15
2023-02-11T05:48:01.038Z,28.67
2023-02-11T05:50:28.818Z,34.70
2023-02-11T05:52:56.549Z,31.50
2023-02-11T05:55:24.506Z,30.05
2023-02-11T05:57:52.236Z,22.98
2023-02-11T06:00:20.382Z,26.77
2023-02-11T06:02:48.118Z,29.95
2023-02-11T06:05:17.384Z,30.50
2023-02-11T06:07:45.144Z,31.05
2023-02-11T06:10:13.555Z,28.55
2023-02-11T06:12:41.518Z,29.02
2023-02-11T06:15:09.500Z,28.40
2023-02-11T06:17:37.412Z,31.17
2023-02-11T06:20:07.255Z,30.00
2023-02-11T06:22:36.347Z,33.30
2023-02-11T06:25:04.188Z,26.10
2023-02-11T06:27:31.924Z,27.90
2023-02-11T06:29:59.611Z,32.42
2023-02-11T06:32:45.636Z,29.45
2023-02-11T06:35:14.322Z,29.63
2023-02-11T06:37:43.920Z,31.25
2023-02-11T06:40:12.659Z,33.75
2023-02-11T06:42:40.487Z,30.30
2023-02-11T06:45:11.148Z,31.80
2023-02-11T06:47:39.163Z,29.15
2023-02-11T06:50:09.224Z,35.80
2023-02-11T06:52:36.973Z,32.50
2023-02-11T06:55:06.594Z,26.85
2023-02-11T06:57:34.371Z,31.02
2023-02-11T07:00:02.534Z,32.30
2023-02-11T07:02:30.525Z,32.05
2023-02-11T07:04:58.502Z,36.10
2023-02-11T07:07:26.280Z,35.55
2023-02-11T07:09:54.111Z,35.17
2023-02-11T07:12:23.194Z,33.95
2023-02-11T07:14:50.990Z,32.17
2023-02-11T07:17:18.711Z,33.63
2023-02-11T07:19:46.497Z,32.85
2023-02-11T07:22:14.253Z,37.40
2023-02-11T07:24:42.136Z,32.88
2023-02-11T07:27:09.883Z,34.03
2023-02-11T07:29:39.109Z,37.47
2023-02-11T07:32:07.263Z,33.88
2023-02-11T07:34:35.315Z,31.90
2023-02-11T07:37:03.211Z,36.47
2023-02-11T07:39:31.106Z,37.45
2023-02-11T07:41:58.886Z,35.47
2023-02-11T07:44:26.688Z,35.50
2023-02-11T07:46:55.766Z,37.25
2023-02-11T07:49:23.480Z,33.40
2023-02-11T07:51:51.495Z,31.08
2023-02-11T07:54:19.308Z,33.85
2023-02-11T07:56:47.079Z,32.08
2023-02-11T07:59:14.851Z,34.28
2023-02-11T08:01:42.586Z,37.40
2023-02-11T08:04:11.827Z,34.90
2023-02-11T08:06:43.617Z,33.25
2023-02-11T08:09:16.538Z,30.00
2023-02-11T08:14:12.833Z,29.48
2023-02-11T08:16:41.258Z,31.70
2023-02-11T08:19:13.598Z,31.48
2023-02-11T08:21:41.825Z,31.45
2023-02-11T08:24:09.995Z,35.67
2023-02-11T08:26:38.935Z,66.15
2023-02-11T08:29:09.407Z,51.60
2023-02-11T08:31:39.743Z,43.33
2023-02-11T08:34:08.005Z,29.80
2023-02-11T08:36:38.890Z,31.98
2023-02-11T08:39:18.483Z,30.38
2023-02-11T08:41:48.871Z,33.15
2023-02-11T08:44:17.039Z,34.70
2023-02-11T08:46:45.207Z,40.25
2023-02-11T08:49:13.113Z,36.65
2023-02-11T08:51:42.336Z,31.38
2023-02-11T08:54:10.546Z,41.50
2023-02-11T08:56:39.043Z,36.28
2023-02-11T08:59:09.268Z,35.88
2023-02-11T09:01:37.442Z,31.00
2023-02-11T09:04:05.466Z,30.65
2023-02-11T09:06:33.520Z,24.63
2023-02-11T09:09:02.832Z,31.55
2023-02-11T09:11:33.447Z,25.50
2023-02-11T09:14:01.970Z,29.13
2023-02-11T09:16:33.664Z,27.20
2023-02-11T09:19:03.177Z,26.77
2023-02-11T09:21:31.714Z,25.33
2023-02-11T09:23:59.838Z,29.15
2023-02-11T09:26:31.515Z,27.27
2023-02-11T09:28:59.807Z,32.50
2023-02-11T09:31:29.396Z,28.40
2023-02-11T09:33:59.910Z,30.42
2023-02-11T09:36:30.433Z,27.23
2023-02-11T09:39:00.692Z,29.35
2023-02-11T09:41:46.532Z,26.85
2023-02-11T09:44:21.034Z,26.30
2023-02-11T09:46:55.814Z,27.08
2023-02-11T09:49:32.491Z,26.23
2023-02-11T09:52:05.759Z,28.70
2023-02-11T09:54:40.628Z,25.55
2023-02-11T09:57:26.449Z,27.67
2023-02-11T09:59:56.396Z,27.10
2023-02-11T10:02:29.373Z,30.98
2023-02-11T10:07:46.429Z,31.33
2023-02-11T10:10:35.017Z,28.73
2023-02-11T10:13:21.015Z,28.60
2023-02-11T10:15:57.234Z,25.48
2023-02-11T10:18:46.492Z,26.20
2023-02-11T10:21:21.163Z,31.70
2023-02-11T10:23:53.962Z,26.60
2023-02-11T10:26:22.365Z,26.70
2023-02-11T10:28:55.508Z,27.70
2023-02-11T10:31:27.221Z,30.52
2023-02-11T10:34:00.727Z,25.42
2023-02-11T10:36:31.030Z,26.98
2023-02-11T10:39:00.724Z,27.30
2023-02-11T10:41:34.974Z,29.10
2023-02-11T10:44:07.878Z,28.55
2023-02-11T10:49:05.805Z,26.17
2023-02-11T10:51:35.183Z,27.02
2023-02-11T10:54:19.462Z,26.65
2023-02-11T10:56:52.223Z,29.13
2023-02-11T10:59:28.459Z,30.00
2023-02-11T11:02:00.708Z,28.08
2023-02-11T11:04:38.256Z,30.48
2023-02-11T11:07:16.921Z,27.20
2023-02-11T11:09:48.465Z,28.92
2023-02-11T11:12:31.992Z,25.95
2023-02-11T11:15:03.802Z,38.58
2023-02-11T11:17:31.856Z,27.40
2023-02-11T11:20:20.285Z,31.88
2023-02-11T11:22:49.289Z,25.83
2023-02-11T11:25:25.771Z,26.35
2023-02-11T11:27:57.058Z,30.42
2023-02-11T11:30:32.406Z,28.38
2023-02-11T11:33:01.964Z,26.92
2023-02-11T11:35:33.023Z,27.77
2023-02-11T11:38:03.351Z,26.15
2023-02-11T11:40:32.677Z,33.97
2023-02-11T11:43:20.253Z,28.92
2023-02-11T11:45:59.265Z,26.52
2023-02-11T11:48:32.583Z,23.85
2023-02-11T11:51:03.188Z,23.48
2023-02-11T11:53:39.082Z,23.67
2023-02-11T11:56:11.813Z,21.88
2023-02-11T11:58:39.530Z,24.48
2023-02-11T12:01:23.347Z,23.90
2023-02-11T12:04:19.673Z,28.40
2023-02-11T12:06:57.575Z,24.20
2023-02-11T12:09:37.016Z,25.83
2023-02-11T12:12:29.328Z,21.90
2023-02-11T12:15:11.362Z,24.05
2023-02-11T12:17:56.638Z,24.40
2023-02-11T12:20:33.904Z,22.15
2023-02-11T12:23:16.057Z,21.52
2023-02-11T12:25:52.508Z,20.47
2023-02-11T12:28:32.944Z,22.55
2023-02-11T12:31:16.746Z,20.90
2023-02-11T12:34:06.249Z,22.58
2023-02-11T12:36:48.974Z,21.88
2023-02-11T12:39:32.647Z,21.58
2023-02-11T12:42:42.620Z,23.67
2023-02-11T12:45:22.918Z,21.00
2023-02-11T12:48:04.704Z,21.73
2023-02-11T12:50:46.154Z,20.70
2023-02-11T12:53:31.875Z,19.85
2023-02-11T12:56:05.034Z,20.80
2023-02-11T12:58:44.976Z,26.67
2023-02-11T13:01:20.227Z,22.40
2023-02-11T13:03:53.992Z,20.77
2023-02-11T13:06:30.276Z,23.15
2023-02-11T13:09:02.193Z,21.00
2023-02-11T13:11:34.164Z,22.92
2023-02-11T13:14:05.146Z,21.33
2023-02-11T13:16:39.297Z,24.10
2023-02-11T13:19:19.482Z,24.83
2023-02-11T13:22:04.458Z,25.13
2023-02-11T13:24:44.294Z,25.70
2023-02-11T13:27:26.433Z,25.50
2023-02-11T13:30:21.435Z,21.88
2023-02-11T13:33:20.547Z,23.73
2023-02-11T13:36:13.186Z,22.80
2023-02-11T13:38:51.811Z,28.35
2023-02-11T13:41:24.738Z,29.63
2023-02-11T13:46:30.739Z,26.05
2023-02-11T13:48:59.439Z,25.73
2023-02-11T13:51:38.879Z,24.60
2023-02-11T13:54:09.562Z,23.52
2023-02-11T13:56:39.742Z,23.35
2023-02-11T13:59:42.345Z,20.58
2023-02-11T14:02:42.537Z,21.77
2023-02-11T14:05:48.792Z,19.10
2023-02-11T14:08:43.695Z,19.33
2023-02-11T14:11:52.409Z,22.23
2023-02-11T14:14:25.913Z,22.50
2023-02-11T14:17:30.938Z,21.20
2023-02-11T14:19:59.917Z,25.05
2023-02-11T14:22:30.283Z,23.55
2023-02-11T14:25:00.856Z,21.45
2023-02-11T14:27:43.341Z,24.75
2023-02-11T14:30:27.370Z,23.98
2023-02-11T14:33:18.079Z,24.33
2023-02-11T14:36:00.596Z,24.63
2023-02-11T14:38:36.939Z,23.52
2023-02-11T14:41:09.056Z,20.15
2023-02-11T14:43:43.044Z,23.15
2023-02-11T14:46:11.150Z,21.60
2023-02-11T14:48:44.608Z,19.25
2023-02-11T14:51:16.011Z,19.17
2023-02-11T14:53:47.504Z,20.02
2023-02-11T14:56:22.375Z,22.77
2023-02-11T14:58:52.977Z,22.73
2023-02-11T15:01:30.843Z,21.60
2023-02-11T15:03:59.469Z,25.23
2023-02-11T15:06:31.555Z,27.27
2023-02-11T15:09:02.099Z,39.60
2023-02-11T15:11:32.891Z,34.75
2023-02-11T15:14:09.556Z,43.53
2023-02-11T15:16:43.389Z,35.28
2023-02-11T15:19:21.137Z,23.20
2023-02-11T15:21:51.780Z,23.63
2023-02-11T15:24:25.284Z,22.60
2023-02-11T15:27:00.952Z,23.90
2023-02-11T15:29:37.384Z,25.38
2023-02-11T15:32:07.388Z,24.35
2023-02-11T15:34:35.969Z,25.35
2023-02-11T15:37:04.507Z,21.55
2023-02-11T15:39:35.576Z,24.15
2023-02-11T15:42:21.180Z,28.65
2023-02-11T15:44:56.592Z,25.50
2023-02-11T15:47:30.895Z,22.23
2023-02-11T15:49:59.165Z,29.05
2023-02-11T15:52:28.984Z,24.75
2023-02-11T15:55:00.708Z,27.70
2023-02-11T15:57:29.321Z,23.35
2023-02-11T16:00:04.570Z,24.05
2023-02-11T16:02:34.423Z,24.05
2023-02-11T16:05:05.613Z,24.33
2023-02-11T16:07:44.842Z,25.92
2023-02-11T16:10:25.631Z,23.17
2023-02-11T16:13:18.247Z,21.60
2023-02-11T16:15:55.505Z,27.17
2023-02-11T16:18:38.864Z,23.52
2023-02-11T16:21:14.425Z,23.92
2023-02-11T16:23:43.430Z,27.10
2023-02-11T16:26:22.047Z,25.25
2023-02-11T16:28:50.263Z,25.83
2023-02-11T16:31:20.045Z,27.73
2023-02-11T16:33:47.885Z,24.80
2023-02-11T16:36:18.105Z,26.65
2023-02-11T16:38:45.998Z,34.40
2023-02-11T16:41:14.319Z,36.33
2023-02-11T16:43:42.056Z,39.10
2023-02-11T16:46:13.848Z,35.55
2023-02-11T16:48:43.216Z,40.03
2023-02-11T16:51:13.171Z,39.90
2023-02-11T16:53:41.155Z,32.55
2023-02-11T16:56:15.095Z,33.33
2023-02-11T16:58:42.853Z,33.30
2023-02-11T17:01:13.750Z,32.85
2023-02-11T17:03:43.768Z,33.72
2023-02-11T17:06:13.575Z,40.88
2023-02-11T17:08:42.031Z,58.28
2023-02-11T17:11:09.815Z,58.25
2023-02-11T17:13:39.440Z,69.65
2023-02-11T17:16:07.218Z,62.38
2023-02-11T17:18:36.003Z,56.78
2023-02-11T17:21:07.481Z,62.17
2023-02-11T17:23:35.158Z,59.65
2023-02-11T17:26:02.947Z,51.92
2023-02-11T17:28:30.741Z,38.28
2023-02-11T17:30:58.523Z,31.38
2023-02-11T17:33:26.434Z,31.40
2023-02-11T17:35:54.514Z,29.42
2023-02-11T17:38:23.964Z,32.13
2023-02-11T17:40:58.738Z,24.45
2023-02-11T17:43:26.552Z,24.25
2023-02-11T17:45:54.762Z,25.77
2023-02-11T17:48:22.760Z,23.30
2023-02-11T17:50:50.521Z,24.80
2023-02-11T17:53:18.392Z,22.42
2023-02-11T17:55:47.455Z,29.60
2023-02-11T17:58:15.230Z,28.58
2023-02-11T18:00:43.405Z,35.72
2023-02-11T18:03:11.174Z,30.33
2023-02-11T18:05:39.524Z,28.40
2023-02-11T18:08:08.619Z,36.17
2023-02-11T18:10:36.394Z,62.97
2023-02-11T18:13:05.823Z,51.50
2023-02-11T18:15:34.704Z,31.35
2023-02-11T18:18:02.483Z,27.70
2023-02-11T18:20:30.379Z,29.75
2023-02-11T18:22:58.121Z,27.70
2023-02-11T18:25:25.908Z,30.73
2023-02-11T18:27:53.666Z,25.85
2023-02-11T18:30:24.194Z,24.83
2023-02-11T18:32:54.834Z,28.30
2023-02-11T18:35:22.920Z,25.40
2023-02-11T18:37:50.961Z,29.27
2023-02-11T18:40:19.070Z,30.38
2023-02-11T18:42:47.482Z,31.40
2023-02-11T18:45:15.972Z,28.75
2023-02-11T18:47:45.205Z,32.72
2023-02-11T18:50:15.542Z,26.65
2023-02-11T18:52:43.759Z,29.20
2023-02-11T18:55:11.586Z,28.20
2023-02-11T18:57:39.594Z,28.77
2023-02-11T19:00:10.000Z,29.80
2023-02-11T19:02:37.956Z,30.95
2023-02-11T19:05:07.808Z,33.72
2023-02-11T19:07:35.519Z,32.78
2023-02-11T19:10:03.460Z,34.28
2023-02-11T19:12:33.135Z,35.28
2023-02-11T19:15:01.554Z,56.65
2023-02-11T19:17:29.325Z,59.42
2023-02-11T19:19:57.177Z,48.22
2023-02-11T19:22:26.362Z,51.08
2023-02-11T19:24:54.206Z,44.95
2023-02-11T19:27:21.927Z,23.50
2023-02-11T19:29:49.691Z,35.85
2023-02-11T19:32:17.677Z,36.55
2023-02-11T19:34:45.407Z,37.95
2023-02-11T19:37:13.906Z,34.05
2023-02-11T19:39:43.933Z,34.63
2023-02-11T19:42:12.112Z,33.97
2023-02-11T19:44:40.093Z,37.72
2023-02-11T19:47:07.988Z,41.55
2023-02-11T19:49:35.696Z,47.03
2023-02-11T19:52:03.574Z,43.25
2023-02-11T19:54:31.417Z,39.30
2023-02-11T19:57:00.657Z,41.97
2023-02-11T19:59:28.455Z,32.63
2023-02-11T20:01:57.582Z,29.95
2023-02-11T20:04:25.744Z,31.63
2023-02-11T20:06:53.554Z,31.38
2023-02-11T20:09:21.731Z,34.13
2023-02-11T20:11:50.094Z,35.58
2023-02-11T20:14:19.356Z,35.28
2023-02-11T20:16:49.829Z,37.60
2023-02-11T20:19:19.990Z,37.05
2023-02-11T20:21:48.922Z,37.08
2023-02-11T20:24:17.413Z,39.38
2023-02-11T20:26:46.947Z,34.30
2023-02-11T20:29:15.283Z,34.00
2023-02-11T20:31:44.603Z,33.83
2023-02-11T20:34:12.985Z,39.70
2023-02-11T20:36:41.158Z,41.65
2023-02-11T20:39:08.961Z,35.63
2023-02-11T20:41:40.031Z,31.90
2023-02-11T20:44:11.059Z,37.33
2023-02-11T20:46:40.852Z,37.95
2023-02-11T20:49:12.255Z,35.10
2023-02-11T20:51:40.639Z,32.97
2023-02-11T20:54:12.510Z,31.02
2023-02-11T20:56:40.760Z,33.22
2023-02-11T20:59:08.920Z,31.83
2023-02-11T21:01:40.280Z,33.15
2023-02-11T21:04:12.857Z,42.95
2023-02-11T21:06:43.990Z,42.55
2023-02-11T21:09:14.239Z,36.30
2023-02-11T21:11:42.162Z,35.08
2023-02-11T21:14:10.223Z,34.03
2023-02-11T21:16:38.333Z,35.70
2023-02-11T21:19:07.051Z,39.15
2023-02-11T21:21:38.626Z,36.58
2023-02-11T21:24:07.628Z,37.90
2023-02-11T21:26:36.359Z,39.80
2023-02-11T21:29:04.655Z,35.65
2023-02-11T21:31:34.465Z,38.10
2023-02-11T21:34:02.412Z,34.22
2023-02-11T21:36:30.610Z,34.08
2023-02-11T21:39:01.746Z,36.47
2023-02-11T21:41:30.036Z,31.67
2023-02-11T21:43:58.148Z,32.05
2023-02-11T21:46:26.145Z,33.47
2023-02-11T21:48:54.541Z,30.58
2023-02-11T21:51:24.624Z,31.55
2023-02-11T21:53:54.906Z,29.10
2023-02-11T21:56:26.370Z,27.05
2023-02-11T21:58:56.087Z,26.63
2023-02-11T22:01:26.986Z,30.40
2023-02-11T22:03:54.782Z,26.95
2023-02-11T22:06:27.081Z,29.95
2023-02-11T22:08:55.911Z,26.77
2023-02-11T22:11:25.358Z,25.60
2023-02-11T22:13:54.752Z,28.17
2023-02-11T22:16:23.072Z,24.05
2023-02-11T22:18:51.478Z,26.35
2023-02-11T22:21:22.315Z,27.67
2023-02-11T22:23:51.454Z,27.15
2023-02-11T22:26:21.872Z,31.08
2023-02-11T22:28:52.162Z,25.17
2023-02-11T22:31:22.796Z,26.58
2023-02-11T22:33:51.149Z,26.52
2023-02-11T22:36:21.470Z,31.75
2023-02-11T22:38:49.231Z,26.25
2023-02-11T22:41:18.006Z,29.15
2023-02-11T22:43:46.184Z,25.20
2023-02-11T22:46:17.822Z,23.63
2023-02-11T22:48:45.979Z,27.17
2023-02-11T22:51:16.217Z,25.25
2023-02-11T22:53:44.548Z,24.42
2023-02-11T22:56:15.825Z,25.23
2023-02-11T22:58:44.120Z,25.00
2023-02-11T23:01:12.608Z,25.35
2023-02-11T23:03:42.200Z,26.75
2023-02-11T23:06:12.639Z,26.13
2023-02-11T23:08:42.849Z,26.88
2023-02-11T23:11:13.437Z,26.27
2023-02-11T23:13:42.545Z,27.38
2023-02-11T23:16:12.548Z,29.45
2023-02-11T23:18:43.259Z,26.05
2023-02-11T23:21:13.676Z,27.65
2023-02-11T23:23:41.459Z,24.75
2023-02-11T23:26:11.332Z,24.67
2023-02-11T23:28:39.306Z,27.15
2023-02-11T23:31:14.963Z,26.25
2023-02-11T23:33:44.124Z,29.23
2023-02-11T23:36:12.283Z,39.47
2023-02-11T23:38:40.337Z,42.72
2023-02-11T23:41:08.490Z,32.45
2023-02-11T23:43:36.414Z,36.15
2023-02-11T23:46:04.683Z,36.45
2023-02-11T23:48:32.421Z,29.90
2023-02-11T23:51:01.515Z,29.40
2023-02-11T23:53:29.322Z,45.47
2023-02-11T23:55:57.184Z,46.63
2023-02-11T23:58:25.205Z,47.75
